首页
METAR-TAF:

METAR-TAF

机场 :

贝瑟默, 阿拉巴马州, 美国

纬度: 33-18-45N, 经度: 086-55-35W, 海拔: 213米

当前天气观测

该预报发布于44分钟前的07:56 UTC
风速6节,风向多变
温度 9°C
湿度 100%
气压 1010 hPa
能見度: 16.1公里
少量云层高于2800英尺
散云层高于5000英尺
阴天层高于11000英尺
小雨

METAR: KEKY 170756Z AUTO VRB06KT 10SM -RA FEW028 SCT050 OVC110 09/09 A2982 RMK AO2 RAB02E33B54 SLP120 P0000 T00940089

时间: 02:40 (08:40 UTC)


TAF: 丢失

超过4000个机场的气象观测和天气预报(METAR&TAF报告)。

可查询的气象台以黄色和红色小点在地图上表示。

将鼠标移到小点上方,可查看气象台名称。

然后点击查看天气观测和预报。

如需切换地图:点击带黑十字的绿色按钮放大地图;点击带横线的绿色按钮缩小地图;或者点击绿色箭头查看邻近地区的地图。


METAR-TAF: